Stölln-Rhinow Airport EDOR

Flugplatz Daten

Name: Stölln-Rhinow Airport

Ident: EDOR

Lat: 52,74083328

Long: 12,39000034

Platzhöhe: 138 ft

IataCode:

City: Rhinow

Metar

2022/08/05 12:00
MNBL 051200Z 00000KT 7000 VCRA BKN016 SCT070 23/23 Q1011 RA/ALREDEDORES

Taf

Gewünschte Webcam nicht vorhanden? Dann fügen Sie eine hinzu. Sie wird dann so schnell wie möglich freigeschaltet
Url: Title: